Terminal Aerodrome Forecast
Issued by NWS

Home | Current Version | Previous Version | Text Only | Print | Product List | Glossary On
Versions: 1 2 3 4 5 6 7 8 9 10 11 12 13 14 15 16 17 18 19 20 21 22 23 24 25 26 27 28 29 30 31 32 33 34
000
FTUS41 KBOX 132338
TAFACK
TAF
KACK 132338Z 1400/1424 28024G34KT P6SM FEW250
     FM140600 27015G27KT P6SM VCSH OVC080
     FM140800 27012G21KT P6SM -SN OVC070
     FM140900 27011KT 2SM -SN OVC025
     FM141100 31010KT 2SM -SN OVC015
     FM141200 33010KT 1/2SM SN OVC008
     FM141500 34011KT 2SM -SN OVC015
     FM141700 33012KT 4SM -SN BKN025
     FM141900 32012G19KT P6SM BKN045
     FM142000 31013KT P6SM SCT140=

USA.gov is the U.S. government's official web portal to all federal, state and local government web resources and services.